sensor_id;sensor_type;location;lat;lon;timestamp;P1;durP1;ratioP1;P2;durP2;ratioP2
239;SDS011;104;53.590;10.004;2023-12-20T05:40:03;13.00;;;5.47;;
239;SDS011;104;53.590;10.004;2023-12-20T05:42:30;8.57;;;5.70;;
239;SDS011;104;53.590;10.004;2023-12-20T05:44:59;8.63;;;5.70;;
239;SDS011;104;53.590;10.004;2023-12-20T05:47:29;8.23;;;6.10;;
239;SDS011;104;53.590;10.004;2023-12-20T05:49:58;11.70;;;6.20;;
239;SDS011;104;53.590;10.004;2023-12-20T05:52:25;10.90;;;6.30;;
239;SDS011;104;53.590;10.004;2023-12-20T05:54:54;8.77;;;6.03;;
239;SDS011;104;53.590;10.004;2023-12-20T05:57:24;9.40;;;6.00;;
239;SDS011;104;53.590;10.004;2023-12-20T05:59:52;10.93;;;6.50;;
239;SDS011;104;53.590;10.004;2023-12-20T06:02:19;9.77;;;6.30;;
239;SDS011;104;53.590;10.004;2023-12-20T06:04:47;7.97;;;5.93;;
239;SDS011;104;53.590;10.004;2023-12-20T06:07:14;8.70;;;5.63;;
239;SDS011;104;53.590;10.004;2023-12-20T06:09:42;8.60;;;5.70;;
239;SDS011;104;53.590;10.004;2023-12-20T06:12:10;13.23;;;7.03;;
239;SDS011;104;53.590;10.004;2023-12-20T06:14:39;10.43;;;6.03;;
239;SDS011;104;53.590;10.004;2023-12-20T06:17:06;10.37;;;6.47;;
239;SDS011;104;53.590;10.004;2023-12-20T06:19:33;15.00;;;5.63;;
239;SDS011;104;53.590;10.004;2023-12-20T06:22:00;8.67;;;5.43;;
239;SDS011;104;53.590;10.004;2023-12-20T06:24:31;13.77;;;5.40;;
239;SDS011;104;53.590;10.004;2023-12-20T06:26:59;8.10;;;5.63;;
239;SDS011;104;53.590;10.004;2023-12-20T06:29:26;7.70;;;5.27;;
239;SDS011;104;53.590;10.004;2023-12-20T06:31:55;6.27;;;4.80;;
239;SDS011;104;53.590;10.004;2023-12-20T06:34:22;7.47;;;4.70;;
239;SDS011;104;53.590;10.004;2023-12-20T06:36:49;7.90;;;5.10;;
239;SDS011;104;53.590;10.004;2023-12-20T06:39:17;7.23;;;4.60;;
239;SDS011;104;53.590;10.004;2023-12-20T06:41:44;4.20;;;3.90;;
239;SDS011;104;53.590;10.004;2023-12-20T06:44:12;8.87;;;3.80;;
239;SDS011;104;53.590;10.004;2023-12-20T06:46:39;6.90;;;3.37;;
239;SDS011;104;53.590;10.004;2023-12-20T06:49:08;3.87;;;2.73;;
239;SDS011;104;53.590;10.004;2023-12-20T06:51:35;2.87;;;2.67;;
239;SDS011;104;53.590;10.004;2023-12-20T06:54:03;3.87;;;2.43;;
239;SDS011;104;53.590;10.004;2023-12-20T06:56:32;2.40;;;2.30;;
239;SDS011;104;53.590;10.004;2023-12-20T06:58:59;1.80;;;1.70;;
239;SDS011;104;53.590;10.004;2023-12-20T07:01:26;2.27;;;2.10;;
239;SDS011;104;53.590;10.004;2023-12-20T07:03:53;2.20;;;2.00;;
239;SDS011;104;53.590;10.004;2023-12-20T07:06:24;2.27;;;2.07;;
239;SDS011;104;53.590;10.004;2023-12-20T07:08:56;2.50;;;2.00;;
239;SDS011;104;53.590;10.004;2023-12-20T07:11:27;2.40;;;2.20;;
239;SDS011;104;53.590;10.004;2023-12-20T07:13:54;2.00;;;1.90;;
239;SDS011;104;53.590;10.004;2023-12-20T07:16:21;4.40;;;2.10;;
239;SDS011;104;53.590;10.004;2023-12-20T07:18:49;2.30;;;2.10;;
239;SDS011;104;53.590;10.004;2023-12-20T07:21:17;2.73;;;2.10;;
239;SDS011;104;53.590;10.004;2023-12-20T07:23:46;2.70;;;2.03;;
239;SDS011;104;53.590;10.004;2023-12-20T07:26:13;12.43;;;6.30;;
239;SDS011;104;53.590;10.004;2023-12-20T07:28:41;2.97;;;2.60;;
239;SDS011;104;53.590;10.004;2023-12-20T07:31:08;4.40;;;3.70;;
239;SDS011;104;53.590;10.004;2023-12-20T07:33:35;6.00;;;2.30;;
239;SDS011;104;53.590;10.004;2023-12-20T07:36:03;3.83;;;2.33;;
239;SDS011;104;53.590;10.004;2023-12-20T07:38:30;3.57;;;2.43;;
239;SDS011;104;53.590;10.004;2023-12-20T07:40:59;2.73;;;2.60;;
239;SDS011;104;53.590;10.004;2023-12-20T07:43:26;4.53;;;2.73;;
239;SDS011;104;53.590;10.004;2023-12-20T07:45:54;7.07;;;2.30;;
239;SDS011;104;53.590;10.004;2023-12-20T07:48:21;2.20;;;2.00;;
239;SDS011;104;53.590;10.004;2023-12-20T07:50:48;2.47;;;2.20;;
239;SDS011;104;53.590;10.004;2023-12-20T07:53:15;2.13;;;1.97;;
239;SDS011;104;53.590;10.004;2023-12-20T07:55:43;10.53;;;2.73;;
239;SDS011;104;53.590;10.004;2023-12-20T07:58:11;2.20;;;2.00;;
239;SDS011;104;53.590;10.004;2023-12-20T08:00:39;2.20;;;2.00;;
239;SDS011;104;53.590;10.004;2023-12-20T08:03:06;1.90;;;1.80;;
239;SDS011;104;53.590;10.004;2023-12-20T08:05:33;2.70;;;2.03;;
239;SDS011;104;53.590;10.004;2023-12-20T08:08:01;2.20;;;2.00;;
239;SDS011;104;53.590;10.004;2023-12-20T08:10:28;2.40;;;2.20;;
239;SDS011;104;53.590;10.004;2023-12-20T08:12:56;2.30;;;2.03;;
239;SDS011;104;53.590;10.004;2023-12-20T08:15:24;2.17;;;2.07;;
239;SDS011;104;53.590;10.004;2023-12-20T08:17:52;2.13;;;2.00;;
239;SDS011;104;53.590;10.004;2023-12-20T08:20:19;2.37;;;2.17;;
239;SDS011;104;53.590;10.004;2023-12-20T08:22:46;2.40;;;2.20;;
239;SDS011;104;53.590;10.004;2023-12-20T08:25:14;2.60;;;2.40;;
239;SDS011;104;53.590;10.004;2023-12-20T08:27:41;2.53;;;2.20;;
239;SDS011;104;53.590;10.004;2023-12-20T08:30:09;3.90;;;2.50;;
239;SDS011;104;53.590;10.004;2023-12-20T08:32:37;3.67;;;2.70;;
239;SDS011;104;53.590;10.004;2023-12-20T08:35:06;2.40;;;2.20;;
239;SDS011;104;53.590;10.004;2023-12-20T08:37:34;2.57;;;2.37;;
239;SDS011;104;53.590;10.004;2023-12-20T08:40:01;2.40;;;2.20;;
239;SDS011;104;53.590;10.004;2023-12-20T08:42:30;3.60;;;3.10;;
239;SDS011;104;53.590;10.004;2023-12-20T08:44:58;2.53;;;2.33;;
239;SDS011;104;53.590;10.004;2023-12-20T08:47:25;4.67;;;2.07;;
239;SDS011;104;53.590;10.004;2023-12-20T08:49:54;2.60;;;2.40;;
239;SDS011;104;53.590;10.004;2023-12-20T08:52:23;2.30;;;2.20;;
239;SDS011;104;53.590;10.004;2023-12-20T08:54:52;2.77;;;2.23;;
239;SDS011;104;53.590;10.004;2023-12-20T08:57:19;2.57;;;2.37;;
239;SDS011;104;53.590;10.004;2023-12-20T08:59:48;2.93;;;2.83;;
239;SDS011;104;53.590;10.004;2023-12-20T09:02:15;7.63;;;4.73;;
239;SDS011;104;53.590;10.004;2023-12-20T09:04:43;6.30;;;4.63;;
239;SDS011;104;53.590;10.004;2023-12-20T09:07:21;2.63;;;2.37;;
239;SDS011;104;53.590;10.004;2023-12-20T09:09:49;2.40;;;2.20;;
239;SDS011;104;53.590;10.004;2023-12-20T09:12:17;2.87;;;2.53;;
239;SDS011;104;53.590;10.004;2023-12-20T09:14:46;4.43;;;2.23;;
239;SDS011;104;53.590;10.004;2023-12-20T09:17:15;3.20;;;2.40;;
239;SDS011;104;53.590;10.004;2023-12-20T09:19:42;3.07;;;2.70;;
239;SDS011;104;53.590;10.004;2023-12-20T09:22:10;2.67;;;2.47;;
239;SDS011;104;53.590;10.004;2023-12-20T09:24:39;2.73;;;2.43;;
239;SDS011;104;53.590;10.004;2023-12-20T09:27:06;7.63;;;3.77;;
239;SDS011;104;53.590;10.004;2023-12-20T09:29:33;3.50;;;2.60;;
239;SDS011;104;53.590;10.004;2023-12-20T09:32:01;7.60;;;2.67;;
239;SDS011;104;53.590;10.004;2023-12-20T09:34:28;3.30;;;2.50;;
239;SDS011;104;53.590;10.004;2023-12-20T09:36:55;7.93;;;2.30;;
239;SDS011;104;53.590;10.004;2023-12-20T09:39:22;4.20;;;2.70;;
239;SDS011;104;53.590;10.004;2023-12-20T09:41:56;3.60;;;3.03;;
239;SDS011;104;53.590;10.004;2023-12-20T09:44:27;3.10;;;2.90;;
239;SDS011;104;53.590;10.004;2023-12-20T09:46:54;5.00;;;3.27;;
239;SDS011;104;53.590;10.004;2023-12-20T09:49:22;4.57;;;3.67;;
239;SDS011;104;53.590;10.004;2023-12-20T09:51:50;4.10;;;3.67;;
239;SDS011;104;53.590;10.004;2023-12-20T09:54:17;5.93;;;4.00;;
239;SDS011;104;53.590;10.004;2023-12-20T09:56:45;4.40;;;3.83;;
239;SDS011;104;53.590;10.004;2023-12-20T09:59:13;6.90;;;5.40;;
239;SDS011;104;53.590;10.004;2023-12-20T10:01:41;7.03;;;4.50;;
239;SDS011;104;53.590;10.004;2023-12-20T10:04:09;7.43;;;5.60;;
239;SDS011;104;53.590;10.004;2023-12-20T10:06:37;12.33;;;5.00;;
239;SDS011;104;53.590;10.004;2023-12-20T10:09:05;9.63;;;5.13;;
239;SDS011;104;53.590;10.004;2023-12-20T10:11:32;6.27;;;4.90;;
239;SDS011;104;53.590;10.004;2023-12-20T10:14:00;6.43;;;4.93;;
239;SDS011;104;53.590;10.004;2023-12-20T10:16:29;7.60;;;4.33;;
239;SDS011;104;53.590;10.004;2023-12-20T10:18:56;7.50;;;4.43;;
239;SDS011;104;53.590;10.004;2023-12-20T10:21:24;7.33;;;4.70;;
239;SDS011;104;53.590;10.004;2023-12-20T10:23:51;4.97;;;3.80;;
239;SDS011;104;53.590;10.004;2023-12-20T10:26:19;4.40;;;3.70;;
239;SDS011;104;53.590;10.004;2023-12-20T10:28:49;3.57;;;3.37;;
239;SDS011;104;53.590;10.004;2023-12-20T10:31:25;5.13;;;3.37;;
239;SDS011;104;53.590;10.004;2023-12-20T10:33:55;3.23;;;3.03;;
239;SDS011;104;53.590;10.004;2023-12-20T10:36:24;3.80;;;3.30;;
239;SDS011;104;53.590;10.004;2023-12-20T10:38:52;3.23;;;3.07;;
239;SDS011;104;53.590;10.004;2023-12-20T10:41:21;3.70;;;3.20;;
239;SDS011;104;53.590;10.004;2023-12-20T10:43:50;5.37;;;3.97;;
239;SDS011;104;53.590;10.004;2023-12-20T10:46:17;3.93;;;3.63;;
239;SDS011;104;53.590;10.004;2023-12-20T10:48:46;5.30;;;4.13;;
239;SDS011;104;53.590;10.004;2023-12-20T10:51:17;4.93;;;3.70;;
239;SDS011;104;53.590;10.004;2023-12-20T10:53:45;4.93;;;3.60;;
239;SDS011;104;53.590;10.004;2023-12-20T10:56:15;9.13;;;4.50;;
239;SDS011;104;53.590;10.004;2023-12-20T10:58:43;8.63;;;4.00;;
239;SDS011;104;53.590;10.004;2023-12-20T11:01:10;6.13;;;4.47;;
239;SDS011;104;53.590;10.004;2023-12-20T11:03:39;8.60;;;4.57;;
239;SDS011;104;53.590;10.004;2023-12-20T11:06:12;6.63;;;4.20;;
239;SDS011;104;53.590;10.004;2023-12-20T11:08:44;12.80;;;4.90;;
239;SDS011;104;53.590;10.004;2023-12-20T11:11:14;6.50;;;4.43;;
239;SDS011;104;53.590;10.004;2023-12-20T11:13:48;4.70;;;3.90;;
239;SDS011;104;53.590;10.004;2023-12-20T11:16:16;6.47;;;4.37;;
239;SDS011;104;53.590;10.004;2023-12-20T11:18:44;7.40;;;4.73;;
239;SDS011;104;53.590;10.004;2023-12-20T11:21:13;10.07;;;5.50;;
239;SDS011;104;53.590;10.004;2023-12-20T11:23:40;6.57;;;4.50;;
239;SDS011;104;53.590;10.004;2023-12-20T11:26:11;5.00;;;3.73;;
239;SDS011;104;53.590;10.004;2023-12-20T11:28:39;8.93;;;4.10;;
239;SDS011;104;53.590;10.004;2023-12-20T11:31:06;6.53;;;4.43;;
239;SDS011;104;53.590;10.004;2023-12-20T11:33:36;10.83;;;4.67;;
239;SDS011;104;53.590;10.004;2023-12-20T11:36:13;8.50;;;4.70;;
239;SDS011;104;53.590;10.004;2023-12-20T11:38:49;7.93;;;4.90;;
239;SDS011;104;53.590;10.004;2023-12-20T11:41:23;5.40;;;4.37;;
239;SDS011;104;53.590;10.004;2023-12-20T11:43:53;15.03;;;3.00;;
239;SDS011;104;53.590;10.004;2023-12-20T11:46:21;5.27;;;3.63;;
239;SDS011;104;53.590;10.004;2023-12-20T11:48:48;6.57;;;3.97;;
239;SDS011;104;53.590;10.004;2023-12-20T11:51:15;6.90;;;4.27;;
239;SDS011;104;53.590;10.004;2023-12-20T11:53:43;6.50;;;3.97;;
239;SDS011;104;53.590;10.004;2023-12-20T11:56:10;14.17;;;4.10;;
239;SDS011;104;53.590;10.004;2023-12-20T11:58:39;6.57;;;4.07;;
239;SDS011;104;53.590;10.004;2023-12-20T12:01:09;6.10;;;3.80;;
239;SDS011;104;53.590;10.004;2023-12-20T12:03:36;8.40;;;3.50;;
239;SDS011;104;53.590;10.004;2023-12-20T12:06:04;8.00;;;3.60;;
239;SDS011;104;53.590;10.004;2023-12-20T12:08:32;8.60;;;3.60;;
239;SDS011;104;53.590;10.004;2023-12-20T12:10:59;7.77;;;3.30;;
239;SDS011;104;53.590;10.004;2023-12-20T12:13:27;3.77;;;3.00;;
239;SDS011;104;53.590;10.004;2023-12-20T12:15:56;6.90;;;3.50;;
239;SDS011;104;53.590;10.004;2023-12-20T12:18:23;7.73;;;3.30;;
239;SDS011;104;53.590;10.004;2023-12-20T12:20:50;6.40;;;3.20;;
239;SDS011;104;53.590;10.004;2023-12-20T12:23:26;10.00;;;3.57;;
239;SDS011;104;53.590;10.004;2023-12-20T12:25:53;8.23;;;2.67;;
239;SDS011;104;53.590;10.004;2023-12-20T12:28:21;6.30;;;3.93;;
239;SDS011;104;53.590;10.004;2023-12-20T12:30:57;7.77;;;3.67;;
239;SDS011;104;53.590;10.004;2023-12-20T12:33:25;4.63;;;2.80;;
239;SDS011;104;53.590;10.004;2023-12-20T12:35:52;5.60;;;3.40;;
239;SDS011;104;53.590;10.004;2023-12-20T12:38:20;6.80;;;3.50;;
239;SDS011;104;53.590;10.004;2023-12-20T12:40:47;4.80;;;3.20;;
239;SDS011;104;53.590;10.004;2023-12-20T12:43:14;3.57;;;3.00;;
239;SDS011;104;53.590;10.004;2023-12-20T12:45:43;7.57;;;3.20;;
239;SDS011;104;53.590;10.004;2023-12-20T12:48:11;5.17;;;2.60;;
239;SDS011;104;53.590;10.004;2023-12-20T12:50:39;3.40;;;2.80;;
239;SDS011;104;53.590;10.004;2023-12-20T12:53:06;5.77;;;3.20;;
239;SDS011;104;53.590;10.004;2023-12-20T12:55:34;9.37;;;2.83;;
239;SDS011;104;53.590;10.004;2023-12-20T12:58:02;5.90;;;3.10;;
239;SDS011;104;53.590;10.004;2023-12-20T13:00:29;11.90;;;3.40;;
239;SDS011;104;53.590;10.004;2023-12-20T13:02:56;10.13;;;3.60;;
239;SDS011;104;53.590;10.004;2023-12-20T13:05:25;4.80;;;3.00;;
239;SDS011;104;53.590;10.004;2023-12-20T13:07:53;5.83;;;3.00;;
239;SDS011;104;53.590;10.004;2023-12-20T13:10:20;4.20;;;3.20;;
239;SDS011;104;53.590;10.004;2023-12-20T13:12:47;6.93;;;3.93;;
239;SDS011;104;53.590;10.004;2023-12-20T13:15:16;5.23;;;3.70;;
239;SDS011;104;53.590;10.004;2023-12-20T13:17:44;7.47;;;3.83;;
239;SDS011;104;53.590;10.004;2023-12-20T13:20:12;6.13;;;3.90;;
239;SDS011;104;53.590;10.004;2023-12-20T13:22:40;7.50;;;3.30;;
239;SDS011;104;53.590;10.004;2023-12-20T13:25:10;6.53;;;2.87;;
239;SDS011;104;53.590;10.004;2023-12-20T13:27:37;6.13;;;3.50;;
239;SDS011;104;53.590;10.004;2023-12-20T13:30:04;6.83;;;3.17;;
239;SDS011;104;53.590;10.004;2023-12-20T13:32:32;12.67;;;3.90;;
239;SDS011;104;53.590;10.004;2023-12-20T13:35:03;10.03;;;4.10;;
239;SDS011;104;53.590;10.004;2023-12-20T13:37:31;11.00;;;5.20;;
239;SDS011;104;53.590;10.004;2023-12-20T13:39:59;9.90;;;4.10;;
239;SDS011;104;53.590;10.004;2023-12-20T13:42:28;8.70;;;3.90;;
239;SDS011;104;53.590;10.004;2023-12-20T13:44:55;8.13;;;3.20;;
239;SDS011;104;53.590;10.004;2023-12-20T13:47:22;8.20;;;3.80;;
239;SDS011;104;53.590;10.004;2023-12-20T13:49:50;9.90;;;3.70;;
239;SDS011;104;53.590;10.004;2023-12-20T13:52:17;5.33;;;3.30;;
239;SDS011;104;53.590;10.004;2023-12-20T13:54:44;6.43;;;3.50;;
239;SDS011;104;53.590;10.004;2023-12-20T13:57:14;7.37;;;3.40;;
239;SDS011;104;53.590;10.004;2023-12-20T13:59:41;7.43;;;3.40;;
239;SDS011;104;53.590;10.004;2023-12-20T14:02:08;6.17;;;3.70;;
239;SDS011;104;53.590;10.004;2023-12-20T14:04:35;8.93;;;4.33;;
239;SDS011;104;53.590;10.004;2023-12-20T14:07:04;11.40;;;4.53;;
239;SDS011;104;53.590;10.004;2023-12-20T14:09:33;10.37;;;3.27;;
239;SDS011;104;53.590;10.004;2023-12-20T14:12:02;4.60;;;3.70;;
239;SDS011;104;53.590;10.004;2023-12-20T14:14:32;6.90;;;3.30;;
239;SDS011;104;53.590;10.004;2023-12-20T14:17:02;9.43;;;3.63;;
239;SDS011;104;53.590;10.004;2023-12-20T14:19:31;6.03;;;3.97;;
239;SDS011;104;53.590;10.004;2023-12-20T14:21:59;5.53;;;3.40;;
239;SDS011;104;53.590;10.004;2023-12-20T14:24:27;11.13;;;3.50;;
239;SDS011;104;53.590;10.004;2023-12-20T14:26:54;5.87;;;3.30;;
239;SDS011;104;53.590;10.004;2023-12-20T14:29:21;9.17;;;3.50;;
239;SDS011;104;53.590;10.004;2023-12-20T14:31:50;6.47;;;3.80;;
239;SDS011;104;53.590;10.004;2023-12-20T14:34:17;13.37;;;4.10;;
239;SDS011;104;53.590;10.004;2023-12-20T14:36:44;5.23;;;3.50;;
239;SDS011;104;53.590;10.004;2023-12-20T14:39:11;5.80;;;3.47;;
239;SDS011;104;53.590;10.004;2023-12-20T14:41:39;9.03;;;3.83;;
239;SDS011;104;53.590;10.004;2023-12-20T14:44:07;7.67;;;3.70;;
239;SDS011;104;53.590;10.004;2023-12-20T14:46:34;10.77;;;4.03;;
239;SDS011;104;53.590;10.004;2023-12-20T14:49:03;13.83;;;3.93;;
239;SDS011;104;53.590;10.004;2023-12-20T14:51:30;7.67;;;3.87;;
239;SDS011;104;53.590;10.004;2023-12-20T14:53:57;6.03;;;3.70;;
239;SDS011;104;53.590;10.004;2023-12-20T14:56:24;7.30;;;3.57;;
239;SDS011;104;53.590;10.004;2023-12-20T14:58:52;7.17;;;3.80;;
239;SDS011;104;53.590;10.004;2023-12-20T15:01:19;10.10;;;3.53;;
239;SDS011;104;53.590;10.004;2023-12-20T15:03:47;9.33;;;3.83;;
239;SDS011;104;53.590;10.004;2023-12-20T15:06:16;5.60;;;3.50;;
239;SDS011;104;53.590;10.004;2023-12-20T15:08:45;8.43;;;3.73;;
239;SDS011;104;53.590;10.004;2023-12-20T15:11:12;7.90;;;3.60;;
239;SDS011;104;53.590;10.004;2023-12-20T15:13:39;16.27;;;4.10;;
239;SDS011;104;53.590;10.004;2023-12-20T15:16:07;6.07;;;3.37;;
239;SDS011;104;53.590;10.004;2023-12-20T15:18:35;7.63;;;3.40;;
239;SDS011;104;53.590;10.004;2023-12-20T15:21:02;5.87;;;3.50;;
239;SDS011;104;53.590;10.004;2023-12-20T15:23:32;11.80;;;3.47;;
239;SDS011;104;53.590;10.004;2023-12-20T15:25:59;12.50;;;3.43;;
239;SDS011;104;53.590;10.004;2023-12-20T15:28:27;7.20;;;3.30;;
239;SDS011;104;53.590;10.004;2023-12-20T15:30:54;8.67;;;3.60;;
239;SDS011;104;53.590;10.004;2023-12-20T15:33:21;7.10;;;3.20;;
239;SDS011;104;53.590;10.004;2023-12-20T15:35:49;12.90;;;3.90;;
239;SDS011;104;53.590;10.004;2023-12-20T15:38:16;6.40;;;4.00;;
239;SDS011;104;53.590;10.004;2023-12-20T15:40:45;9.10;;;3.77;;
239;SDS011;104;53.590;10.004;2023-12-20T15:43:13;6.77;;;3.67;;
239;SDS011;104;53.590;10.004;2023-12-20T15:45:41;6.00;;;4.20;;
239;SDS011;104;53.590;10.004;2023-12-20T15:48:11;9.00;;;4.67;;
239;SDS011;104;53.590;10.004;2023-12-20T15:50:43;10.43;;;3.90;;
239;SDS011;104;53.590;10.004;2023-12-20T15:53:10;9.67;;;4.00;;
239;SDS011;104;53.590;10.004;2023-12-20T15:55:38;16.67;;;4.13;;
239;SDS011;104;53.590;10.004;2023-12-20T15:58:06;12.83;;;4.03;;
239;SDS011;104;53.590;10.004;2023-12-20T16:00:33;19.53;;;4.33;;
239;SDS011;104;53.590;10.004;2023-12-20T16:03:01;10.77;;;5.20;;
239;SDS011;104;53.590;10.004;2023-12-20T16:05:28;11.40;;;3.53;;
239;SDS011;104;53.590;10.004;2023-12-20T16:07:56;11.97;;;3.77;;
239;SDS011;104;53.590;10.004;2023-12-20T16:10:25;8.40;;;4.20;;
239;SDS011;104;53.590;10.004;2023-12-20T16:12:53;14.50;;;5.03;;
239;SDS011;104;53.590;10.004;2023-12-20T16:15:22;8.93;;;4.77;;
239;SDS011;104;53.590;10.004;2023-12-20T16:17:50;6.43;;;3.83;;
239;SDS011;104;53.590;10.004;2023-12-20T16:20:17;8.00;;;4.00;;
239;SDS011;104;53.590;10.004;2023-12-20T16:22:45;10.93;;;4.67;;
239;SDS011;104;53.590;10.004;2023-12-20T16:25:13;7.90;;;4.83;;
239;SDS011;104;53.590;10.004;2023-12-20T16:27:40;10.60;;;4.40;;
239;SDS011;104;53.590;10.004;2023-12-20T16:30:08;10.17;;;4.43;;
239;SDS011;104;53.590;10.004;2023-12-20T16:32:37;6.33;;;3.37;;
239;SDS011;104;53.590;10.004;2023-12-20T16:35:04;8.97;;;4.03;;
239;SDS011;104;53.590;10.004;2023-12-20T16:37:32;9.13;;;4.93;;
239;SDS011;104;53.590;10.004;2023-12-20T16:40:03;9.37;;;4.30;;
239;SDS011;104;53.590;10.004;2023-12-20T16:42:30;7.57;;;4.10;;
239;SDS011;104;53.590;10.004;2023-12-20T16:44:58;14.70;;;5.43;;
239;SDS011;104;53.590;10.004;2023-12-20T16:47:25;9.87;;;5.60;;
239;SDS011;104;53.590;10.004;2023-12-20T16:49:53;8.57;;;4.13;;
239;SDS011;104;53.590;10.004;2023-12-20T16:52:23;12.57;;;4.17;;
239;SDS011;104;53.590;10.004;2023-12-20T16:54:50;6.30;;;3.53;;
239;SDS011;104;53.590;10.004;2023-12-20T16:57:18;7.93;;;3.90;;
239;SDS011;104;53.590;10.004;2023-12-20T16:59:46;11.67;;;4.83;;
239;SDS011;104;53.590;10.004;2023-12-20T17:02:13;7.30;;;3.77;;
239;SDS011;104;53.590;10.004;2023-12-20T17:04:40;7.23;;;4.00;;
239;SDS011;104;53.590;10.004;2023-12-20T17:07:11;8.93;;;4.03;;
239;SDS011;104;53.590;10.004;2023-12-20T17:09:38;8.63;;;3.93;;
239;SDS011;104;53.590;10.004;2023-12-20T17:12:06;8.50;;;4.63;;
239;SDS011;104;53.590;10.004;2023-12-20T17:14:33;7.70;;;4.20;;
239;SDS011;104;53.590;10.004;2023-12-20T17:17:01;9.10;;;4.20;;
239;SDS011;104;53.590;10.004;2023-12-20T17:19:28;9.87;;;4.47;;
239;SDS011;104;53.590;10.004;2023-12-20T17:21:56;15.23;;;4.77;;
239;SDS011;104;53.590;10.004;2023-12-20T17:24:24;8.30;;;4.60;;
239;SDS011;104;53.590;10.004;2023-12-20T17:26:53;8.23;;;4.27;;
239;SDS011;104;53.590;10.004;2023-12-20T17:29:21;7.23;;;4.13;;
239;SDS011;104;53.590;10.004;2023-12-20T17:31:48;8.23;;;4.50;;
239;SDS011;104;53.590;10.004;2023-12-20T17:34:15;8.83;;;3.90;;
239;SDS011;104;53.590;10.004;2023-12-20T17:36:44;8.80;;;4.50;;
239;SDS011;104;53.590;10.004;2023-12-20T17:39:12;10.40;;;4.50;;
239;SDS011;104;53.590;10.004;2023-12-20T17:41:40;12.47;;;4.17;;
239;SDS011;104;53.590;10.004;2023-12-20T17:44:08;9.77;;;4.20;;
239;SDS011;104;53.590;10.004;2023-12-20T17:46:37;10.37;;;4.60;;
239;SDS011;104;53.590;10.004;2023-12-20T17:49:04;7.30;;;3.97;;
239;SDS011;104;53.590;10.004;2023-12-20T17:56:43;14.60;;;5.37;;
239;SDS011;104;53.590;10.004;2023-12-20T17:59:12;10.03;;;4.87;;
239;SDS011;104;53.590;10.004;2023-12-20T18:01:41;8.40;;;4.60;;
239;SDS011;104;53.590;10.004;2023-12-20T18:04:08;14.87;;;5.47;;
239;SDS011;104;53.590;10.004;2023-12-20T18:06:35;11.70;;;5.00;;
239;SDS011;104;53.590;10.004;2023-12-20T18:09:03;15.07;;;4.90;;
239;SDS011;104;53.590;10.004;2023-12-20T18:11:32;15.50;;;4.40;;
239;SDS011;104;53.590;10.004;2023-12-20T18:14:03;12.97;;;5.00;;
239;SDS011;104;53.590;10.004;2023-12-20T18:16:30;13.43;;;4.53;;
239;SDS011;104;53.590;10.004;2023-12-20T18:18:58;9.73;;;4.37;;
239;SDS011;104;53.590;10.004;2023-12-20T18:21:25;11.90;;;4.90;;
239;SDS011;104;53.590;10.004;2023-12-20T18:23:52;10.73;;;4.90;;
239;SDS011;104;53.590;10.004;2023-12-20T18:26:19;10.10;;;4.40;;
239;SDS011;104;53.590;10.004;2023-12-20T18:28:47;9.13;;;4.87;;
239;SDS011;104;53.590;10.004;2023-12-20T18:31:16;12.53;;;5.40;;
239;SDS011;104;53.590;10.004;2023-12-20T18:33:43;10.13;;;4.37;;
239;SDS011;104;53.590;10.004;2023-12-20T18:36:10;7.37;;;4.00;;
239;SDS011;104;53.590;10.004;2023-12-20T18:38:38;8.27;;;5.33;;
239;SDS011;104;53.590;10.004;2023-12-20T18:41:05;16.13;;;4.83;;
239;SDS011;104;53.590;10.004;2023-12-20T18:43:33;7.43;;;4.03;;
239;SDS011;104;53.590;10.004;2023-12-20T18:46:00;12.03;;;4.93;;
239;SDS011;104;53.590;10.004;2023-12-20T18:48:30;12.73;;;4.37;;
239;SDS011;104;53.590;10.004;2023-12-20T18:50:58;9.13;;;4.50;;
239;SDS011;104;53.590;10.004;2023-12-20T18:53:25;8.20;;;3.83;;
239;SDS011;104;53.590;10.004;2023-12-20T18:55:52;5.93;;;3.80;;
239;SDS011;104;53.590;10.004;2023-12-20T18:58:20;6.70;;;4.20;;
239;SDS011;104;53.590;10.004;2023-12-20T19:00:48;12.20;;;4.30;;
239;SDS011;104;53.590;10.004;2023-12-20T19:03:16;5.97;;;3.70;;
239;SDS011;104;53.590;10.004;2023-12-20T19:05:45;9.63;;;4.70;;
239;SDS011;104;53.590;10.004;2023-12-20T19:08:15;7.63;;;3.93;;
239;SDS011;104;53.590;10.004;2023-12-20T19:10:44;11.43;;;6.57;;
239;SDS011;104;53.590;10.004;2023-12-20T19:13:12;11.30;;;4.43;;
239;SDS011;104;53.590;10.004;2023-12-20T19:15:53;5.20;;;3.73;;
